• Join FlightAware (Why Join?)
  • Login
  • US Flag 
10:05AM EST


 

Airport Tracker/Info


-or-


 

Live Flight TrackerFlight Track Log ✈ UAL481 ✈ 02-Jul-2013 ✈ KALB - KORD

Flight Track Log - Related Links

Times and Time Zones

All times are in EDT time to prevent confusion due to time zone crossing. See the UAL481 flight status page for this flight to view local times or setup timezone preferences in your user account.

Time Position Orientation Groundspeed Altitude Reporting Facility
EDT Latitude Longitude Course Direction KTS MPH feet Rate Location/Type
05:57PM 42.7278 -73.8081 283° West 144 166 1,300  Level Boston Center
05:58PM 42.6944 -73.8072 179° South 170 196 2,300 2,097 Climbing Boston Center
05:59PM 42.6914 -73.8892 267° West 281 323 4,900 3,057 Climbing Boston Center
06:00PM 42.7072 -73.9517 289° West 281 323 7,700 2,943 Climbing Boston Center
06:01PM 42.8270 -74.2986 284° West  Level FlightAware Approximate
06:01PM 42.7350 -74.0486 291° West 281 323 10,100  Level Boston Center
06:02PM 42.8487 -74.4251 283° West  Level FlightAware Approximate
06:02PM 42.7586 -74.1453 288° West 307 353 12,100  Level Boston Center
06:03PM 42.7942 -74.2681 292° West 324 373 17,100 3,050 Climbing Boston Center
06:04PM 42.8217 -74.3792 289° West 332 382 18,200 1,350 Climbing Boston Center
06:05PM 42.8619 -74.5617 287° West 380 437 19,800 1,500 Climbing Boston Center
06:06PM 42.8903 -74.7131 284° West 395 455 21,200 1,400 Climbing Boston Center
06:07PM 42.9225 -74.8731 285° West 422 486 22,600 1,500 Climbing Boston Center
06:08PM 42.9525 -75.0331 284° West 435 501 24,200 1,750 Climbing Boston Center
06:09PM 42.9800 -75.1931 283° West 435 501 26,100 1,455 Climbing Boston Center
06:10PM 43.0092 -75.3533 284° West 435 501 27,400 2,682 Climbing Boston Center
06:11PM 43.0419 -75.5311 284° West 427 491 32,000 2,900 Climbing Boston Center
06:12PM 43.0633 -75.6631 283° West 398 458 33,200 804 Climbing Boston Center
06:14PM 43.1000 -75.9500 280° West 400 460 34,600 835 Climbing Toronto Center
06:15PM 43.1500 -76.1167 292° West 400 460 35,900 1,250 Climbing Toronto Center
06:16PM 43.1500 -76.2500 270° West 400 460 37,100 884 Climbing Toronto Center
06:17PM 43.1600 -76.4589 274° West 401 461 37,800 372 Climbing Cleveland Center
06:18PM 43.1589 -76.6097 269° West 401 461 37,900 100 Climbing Cleveland Center
06:19PM 43.1597 -76.7578 270° West 401 461 38,000  Climbing Cleveland Center
06:20PM 43.1603 -76.9028 270° West 401 461 37,900  Descending Cleveland Center
06:21PM 43.1567 -77.0483 268° West 396 456 38,000 50 Climbing Cleveland Center
06:22PM 43.1567 -77.1964 270° West 391 450 38,000 -50 Level Cleveland Center
06:23PM 43.1567 -77.3414 270° West 386 444 37,900  Descending Cleveland Center
06:24PM 43.1544 -77.4867 269° West 386 444 38,000  Climbing Cleveland Center
06:25PM 43.1542 -77.6319 270° West 386 444 37,900 -50 Descending Cleveland Center
06:26PM 43.1517 -77.7858 269° West 391 450 37,900 50 Level Cleveland Center
06:27PM 43.1489 -77.9311 269° West 391 450 38,000 50 Climbing Cleveland Center
06:28PM 43.1481 -78.0819 270° West 391 450 38,000 -50 Level Cleveland Center
06:29PM 43.1450 -78.2300 268° West 396 456 37,900 -50 Descending Cleveland Center
06:30PM 43.1436 -78.3808 269° West 396 456 37,900  Level Cleveland Center
06:31PM 43.1381 -78.5292 267° West 396 456 37,900 50 Level Cleveland Center
06:32PM 43.1344 -78.6828 268° West 402 463 38,000 50 Climbing Cleveland Center
06:33PM 43.1306 -78.8308 268° West 402 463 38,000  Level Cleveland Center
06:34PM 43.1167 -78.9500 261° West 400 460 38,000  Level Toronto Center
06:35PM 43.1167 -79.0833 270° West 390 449 38,000 -50 Level Toronto Center
06:36PM 43.1000 -79.2167 260° West 390 449 37,900 -50 Descending Toronto Center
06:37PM 43.1000 -79.3833 270° West 390 449 37,900  Level Toronto Center
06:38PM 43.1000 -79.5500 270° West 390 449 37,900 50 Level Toronto Center
06:39PM 43.0833 -79.6833 260° West 390 449 38,000 50 Climbing Toronto Center
06:40PM 43.0833 -79.8167 270° West 390 449 38,000  Level Toronto Center
06:41PM 43.0833 -79.9833 270° West 390 449 38,000 -50 Level Toronto Center
06:42PM 43.1500 -80.0833 312° West 430 495 37,900 -50 Descending Toronto Center
06:43PM 43.2667 -80.2000 324° Northwest 460 529 37,900  Level Toronto Center
06:44PM 43.3500 -80.3500 307° West 460 529 37,900 50 Level Toronto Center
06:45PM 43.3667 -80.4833 280° West 410 472 38,000 50 Climbing Toronto Center
06:46PM 43.3667 -80.6167 270° West 380 437 38,000  Level Toronto Center
06:47PM 43.3500 -80.7833 262° West 380 437 38,000  Level Toronto Center
06:48PM 43.3167 -80.9167 251° West 380 437 38,000  Level Toronto Center
06:49PM 43.3000 -81.0500 260° West 370 426 38,000 -50 Level Toronto Center
06:50PM 43.2833 -81.1833 260° West 370 426 37,900 -50 Descending Toronto Center
06:51PM 43.2667 -81.3333 261° West 370 426 37,900 50 Level Toronto Center
06:52PM 43.2500 -81.4833 261° West 370 426 38,000 50 Climbing Toronto Center
06:53PM 43.2333 -81.6167 260° West 380 437 38,000 -50 Level Toronto Center
06:54PM 43.2167 -81.7667 261° West 370 426 37,900  Descending Toronto Center
06:55PM 43.2167 -81.9000 270° West 370 426 38,000 50 Climbing Toronto Center
06:56PM 43.1833 -82.0333 251° West 380 437 38,000  Level Toronto Center
06:57PM 43.1667 -82.2000 262° West 370 426 38,000 -50 Level Toronto Center
06:58PM 43.1500 -82.3333 260° West 370 426 37,900 -50 Descending Toronto Center
06:59PM 43.1333 -82.4500 259° West 370 426 37,900 -94 Level Toronto Center
07:00PM 43.1194 -82.6281 264° West 375 432 37,700 -558 Descending Cleveland Center
07:01PM 43.1000 -82.7697 259° West 375 432 36,700 -1,000 Descending Cleveland Center
07:02PM 43.0806 -82.9139 260° West 375 432 35,700 -1,000 Descending Cleveland Center
07:03PM 43.0631 -83.0525 260° West 380 437 34,700 -1,000 Descending Cleveland Center
07:04PM 43.0456 -83.1911 260° West 380 437 33,700 -950 Descending Cleveland Center
07:05PM 43.0236 -83.3294 258° West 375 432 32,800 -950 Descending Cleveland Center
07:06PM 43.0056 -83.4733 260° West 375 432 31,800 -1,000 Descending Cleveland Center
07:07PM 42.9828 -83.6228 258° West 390 449 30,800 -900 Descending Cleveland Center
07:08PM 42.9622 -83.7722 259° West 403 464 30,000 -450 Descending Cleveland Center
07:09PM 42.9475 -83.9247 263° West 409 471 29,900  Descending Cleveland Center
07:10PM 42.9325 -84.0797 263° West 409 471 30,000  Climbing Cleveland Center
07:11PM 42.9172 -84.2322 262° West 409 471 29,900  Descending Cleveland Center
07:12PM 42.9019 -84.3844 262° West 409 471 30,000  Climbing Cleveland Center
07:13PM 42.8883 -84.5394 263° West 409 471 29,900 -44 Descending Cleveland Center
07:14PM 42.8689 -84.7289 262° West 416 479 29,900 44 Level Chicago Center
07:16PM 42.8536 -84.8853 262° West 418 481 30,000  Climbing Chicago Center
07:17PM 42.8372 -85.0408 262° West 416 479 29,900 -48 Descending Chicago Center
07:18PM 42.8183 -85.1933 260° West 412 474 29,900  Level Chicago Center
07:19PM 42.7658 -85.3303 242° Southwest 405 466 29,900  Level Chicago Center
07:20PM 42.7128 -85.4706 243° Southwest 412 474 29,900 -919 Level Chicago Center
07:21PM 42.6483 -85.6372 242° Southwest 413 475 28,000 -2,244 Descending Chicago Center
07:22PM 42.5958 -85.7722 242° Southwest 407 468 25,300 -2,585 Descending Chicago Center
07:23PM 42.5436 -85.9064 242° Southwest 402 463 22,700 -2,419 Descending Chicago Center
07:24PM 42.4928 -86.0344 242° Southwest 390 449 20,300 -1,306 Descending Chicago Center
07:25PM 42.4633 -86.1733 254° West 398 458 20,000 -145 Descending Chicago Center
07:26PM 42.4367 -86.3150 256° West 392 451 20,000 -290 Level Chicago Center
07:27PM 42.4244 -86.4592 263° West 392 451 19,400 -871 Descending Chicago Center
07:28PM 42.4336 -86.6342 274° West 386 444 18,200 -1,258 Descending Chicago Center
07:29PM 42.4331 -86.7622 270° West 376 433 16,800 -1,645 Descending Chicago Center
07:30PM 42.4233 -86.9094 265° West 362 417 14,800 -1,742 Descending Chicago Center
07:31PM 42.4147 -87.0450 265° West 362 417 13,200 -1,500 Descending Chicago Center
07:32PM 42.4047 -87.1769 264° West 350 403 11,700 -1,500 Descending Chicago Center
07:33PM 42.3989 -87.3036 266° West 347 399 10,100 -871 Descending Chicago Center
07:34PM 42.3664 -87.4322 251° West 342 394 9,900 -97 Descending Chicago Center
07:35PM 42.3300 -87.5450 246° West 337 388 9,900  Level Chicago Center
07:36PM 42.2439 -87.6347 218° Southwest 331 381 9,900 -290 Level Chicago Center
07:37PM 42.1786 -87.7042 218° Southwest 303 349 9,300 -1,113 Descending Chicago Center
07:38PM 42.1172 -87.7669 217° Southwest 283 326 7,600 -1,113 Descending Chicago Center
07:39PM 42.0839 -87.8556 243° Southwest 284 327 7,000 -290 Descending Chicago Center
07:40PM 42.0658 -87.9592 257° West 283 326 7,000 -194 Level Chicago Center
07:41PM 42.0569 -88.0656 264° West 251 289 6,600 -774 Descending Chicago Center
07:42PM 42.0542 -88.1497 267° West 232 267 5,400 -1,113 Descending Chicago Center
07:43PM 42.0500 -88.2358 266° West 232 267 4,300 -677 Descending Chicago Center
07:44PM 42.0042 -88.2672 207° Southwest 215 247 4,000 -145 Descending Chicago Center
07:45PM 41.9714 -88.2100 128° Southeast 198 228 4,000 -145 Level Chicago Center
07:47PM 41.9667 -88.1361 95° East 169 194 3,700 -290 Descending Chicago Center